createdAt,value
2023-04-10T11:59:35.442Z,6.97
2023-04-10T12:05:05.438Z,7.70
2023-04-10T12:10:08.117Z,10.35
2023-04-10T12:15:37.768Z,14.35
2023-04-10T12:26:52.798Z,8.07
2023-04-10T12:31:54.631Z,4.57
2023-04-10T12:36:56.309Z,5.32
2023-04-10T12:42:23.077Z,6.97
2023-04-10T12:47:25.088Z,5.20
2023-04-10T12:52:26.807Z,6.63
2023-04-10T12:57:30.983Z,4.15
2023-04-10T13:02:32.983Z,4.20
2023-04-10T13:07:39.188Z,5.55
2023-04-10T13:12:40.878Z,3.47
2023-04-10T13:17:42.644Z,4.20
2023-04-10T13:22:44.787Z,3.65
2023-04-10T13:27:46.485Z,3.35
2023-04-10T13:32:51.270Z,4.22
2023-04-10T13:37:52.865Z,3.17
2023-04-10T13:42:55.110Z,3.92
2023-04-10T13:47:56.885Z,5.20
2023-04-10T13:52:58.862Z,3.28
2023-04-10T13:58:00.539Z,3.35
2023-04-10T14:03:02.367Z,3.55
2023-04-10T14:08:04.720Z,3.08
2023-04-10T14:13:08.860Z,4.32
2023-04-10T14:18:10.665Z,3.38
2023-04-10T14:23:36.294Z,4.82
2023-04-10T14:28:38.063Z,3.60
2023-04-10T14:33:42.393Z,2.75
2023-04-10T14:38:46.849Z,3.05
2023-04-10T14:43:54.376Z,2.67
2023-04-10T14:48:56.281Z,3.45
2023-04-10T14:53:59.004Z,2.58
2023-04-10T14:59:00.712Z,3.72
2023-04-10T15:04:14.169Z,3.45
2023-04-10T15:09:15.946Z,2.83
2023-04-10T15:14:17.643Z,2.22
2023-04-10T15:19:19.534Z,1.90
2023-04-10T15:24:21.266Z,1.85
2023-04-10T15:29:23.068Z,3.55
2023-04-10T15:34:26.366Z,1.63
2023-04-10T15:39:35.745Z,1.95
2023-04-10T15:44:49.662Z,1.85
2023-04-10T15:49:54.154Z,2.17
2023-04-10T15:54:59.943Z,1.67
2023-04-10T16:00:08.205Z,2.35
2023-04-10T16:05:12.337Z,1.63
2023-04-10T16:10:14.261Z,1.65
2023-04-10T16:15:19.388Z,2.17
2023-04-10T16:20:21.162Z,1.95
2023-04-10T16:25:25.497Z,2.45
2023-04-10T16:30:27.164Z,2.33
2023-04-10T16:35:28.934Z,3.00
2023-04-10T16:40:37.989Z,3.63
2023-04-10T16:45:40.623Z,2.67
2023-04-10T16:50:42.244Z,3.97
2023-04-10T16:55:46.502Z,12.65
2023-04-10T17:00:53.642Z,35.47
2023-04-10T17:05:55.356Z,56.60
2023-04-10T17:10:57.221Z,66.28
2023-04-10T17:15:59.336Z,52.65
2023-04-10T17:21:04.375Z,36.42
2023-04-10T17:26:06.853Z,25.13
2023-04-10T17:31:08.605Z,22.90
2023-04-10T17:36:21.692Z,18.33
2023-04-10T17:41:24.397Z,22.48
2023-04-10T17:46:26.088Z,23.38
2023-04-10T17:51:27.755Z,20.55
2023-04-10T17:56:33.468Z,19.02
2023-04-10T18:01:36.280Z,19.20
2023-04-10T18:06:40.858Z,20.30
2023-04-10T18:11:42.567Z,19.73
2023-04-10T18:16:45.721Z,17.70
2023-04-10T18:21:49.740Z,16.30
2023-04-10T18:26:51.489Z,14.98
2023-04-10T18:31:55.551Z,21.08
2023-04-10T18:36:57.184Z,15.48
2023-04-10T18:42:01.705Z,16.27
2023-04-10T18:47:04.777Z,15.90
2023-04-10T18:52:06.851Z,13.57
2023-04-10T18:57:16.935Z,11.65
2023-04-10T19:02:22.305Z,12.48
2023-04-10T19:12:40.446Z,11.55
2023-04-10T19:17:44.433Z,9.40
2023-04-10T19:22:53.332Z,7.88
2023-04-10T19:27:55.162Z,10.05
2023-04-10T19:32:59.854Z,9.95
2023-04-10T19:38:01.522Z,9.88
2023-04-10T19:43:03.221Z,8.43
2023-04-10T19:48:05.074Z,10.30
2023-04-10T19:53:09.887Z,12.02
2023-04-10T19:58:25.300Z,13.68
2023-04-10T20:03:33.480Z,11.77
2023-04-10T20:08:35.320Z,9.38
2023-04-10T20:13:37.193Z,9.48
2023-04-10T20:18:46.002Z,8.07
2023-04-10T20:23:51.574Z,9.60
2023-04-10T20:28:54.933Z,7.85
2023-04-10T20:33:56.880Z,7.68
2023-04-10T20:39:01.579Z,6.18
2023-04-10T20:44:07.342Z,6.72
2023-04-10T20:49:10.160Z,6.57
2023-04-10T20:54:25.254Z,8.02
2023-04-10T20:59:29.318Z,6.65
2023-04-10T21:04:34.050Z,7.38
2023-04-10T21:09:36.082Z,6.10
2023-04-10T21:14:37.941Z,5.70
2023-04-10T21:19:45.815Z,6.95
2023-04-10T21:24:59.664Z,6.40
2023-04-10T21:30:01.680Z,5.10
2023-04-10T21:35:08.643Z,6.20
2023-04-10T21:40:10.554Z,6.45
2023-04-10T21:45:12.211Z,5.25
2023-04-10T21:50:13.880Z,5.53
2023-04-10T21:55:20.771Z,4.85
2023-04-10T22:00:24.215Z,4.03
2023-04-10T22:05:32.257Z,6.00
2023-04-10T22:10:35.075Z,5.47
2023-04-10T22:15:37.047Z,4.90
2023-04-10T22:20:42.578Z,4.60
2023-04-10T22:25:44.416Z,5.22
2023-04-10T22:30:51.800Z,3.97
2023-04-10T22:36:04.467Z,4.47
2023-04-10T22:41:09.540Z,4.13
2023-04-10T22:46:11.674Z,3.42
2023-04-10T22:51:18.572Z,3.92
2023-04-10T22:56:20.289Z,3.25
2023-04-10T23:01:22.168Z,3.53
2023-04-10T23:06:25.365Z,3.58
2023-04-10T23:11:27.192Z,3.45
2023-04-10T23:16:35.903Z,3.45
2023-04-10T23:21:38.494Z,3.28
2023-04-10T23:26:40.329Z,2.55
2023-04-10T23:31:46.770Z,2.92
2023-04-10T23:36:50.244Z,2.58
2023-04-10T23:41:52.022Z,3.75
2023-04-10T23:46:53.798Z,3.00
2023-04-10T23:51:55.445Z,3.30
2023-04-10T23:56:59.144Z,4.65
